LICT

Vincenzo Florio Trapani-Birgi Airport

Trapani, Italy
TAF LICT 230800Z 2309/2318 32008KT CAVOK
Issued Valid From Valid To
Apr-23 @ 08:00 UTC
(2 hours ago)
Apr-23 @ 09:00 UTC
(41 minutes ago)
Apr-23 @ 18:00 UTC
(in 8 hours)
Apr-23 @ 09:00 to Apr-23 @ 18:00
TAF LICT 230800Z 2309/2318 32008KT CAVOK
Wind Visibility Clouds Conditions
320° at 8 knots 10,000+ meters
  • No significant clouds
TAF LICT 230800Z 2309/2318 32008KT CAVOK
Issued Apr-23 @ 08:00 UTC
(2 hours ago)
Valid From Apr-23 @ 09:00 UTC
(41 minutes ago)
Valid To Apr-23 @ 18:00 UTC
(in 8 hours)
Apr-23 @ 09:00 - Apr-23 @ 18:00
Wind Visibility
320° at 8 knots 10,000+ meters
Clouds
  • No significant clouds
Conditions